Time;durP1;ratioP1;P1;durP2;ratioP2;P2;SDS_P1;SDS_P2;PMS_P1;PMS_P2;Temp;Humidity;BMP_temperature;BMP_pressure;BME280_temperature;BME280_humidity;BME280_pressure;Samples;Min_cycle;Max_cycle;Signal;HPM_P1;HPM_P2
2022/01/14 00:01:22;;;;;;;11.88;9.13;;;18.60;96.30;;;;;;4230521;28;20213;-79
2022/01/14 00:03:25;;;;;;;10.73;8.85;;;18.60;96.30;;;;;;4230499;28;20202;-80
2022/01/14 00:05:27;;;;;;;10.25;8.57;;;18.60;96.70;;;;;;4230504;28;20674;-79
2022/01/14 00:07:29;;;;;;;11.25;9.52;;;18.60;96.30;;;;;;4233292;27;20639;-80
2022/01/14 00:09:33;;;;;;;9.80;8.57;;;18.60;96.30;;;;;;4240129;27;20280;-79
2022/01/14 00:11:39;;;;;;;11.60;9.20;;;18.60;96.20;;;;;;4230414;28;20244;-80
2022/01/14 00:16:02;;;;;;;10.07;8.85;;;18.50;96.20;;;;;;4241308;27;20266;-80
2022/01/14 00:18:05;;;;;;;10.55;8.75;;;18.60;96.20;;;;;;4232664;27;20214;-79
2022/01/14 00:20:08;;;;;;;10.02;8.45;;;18.50;96.20;;;;;;4230270;28;20662;-79
2022/01/14 00:22:14;;;;;;;9.93;8.93;;;18.50;96.20;;;;;;4230295;28;20262;-80
2022/01/14 00:24:28;;;;;;;11.80;10.13;;;18.50;96.20;;;;;;4230450;28;20214;-79
2022/01/14 00:33:32;;;;;;;11.90;9.35;;;18.50;96.20;;;;;;4231353;27;20198;-79
2022/01/14 00:35:36;;;;;;;10.48;8.80;;;18.40;96.10;;;;;;4233797;27;20215;-80
2022/01/14 00:37:38;;;;;;;10.40;8.98;;;18.50;96.20;;;;;;4240582;27;20212;-80
2022/01/14 00:39:40;;;;;;;11.68;9.68;;;18.50;96.20;;;;;;4228653;28;20214;-79
2022/01/14 00:41:44;;;;;;;11.95;9.57;;;18.40;96.10;;;;;;4229527;28;20218;-80
2022/01/14 00:43:46;;;;;;;10.85;8.60;;;18.40;96.20;;;;;;4232644;27;20217;-80
2022/01/14 00:45:51;;;;;;;11.30;9.05;;;18.50;96.30;;;;;;4244364;27;20243;-78
2022/01/14 00:47:53;;;;;;;11.80;9.25;;;18.50;96.20;;;;;;4244792;27;20213;-79
2022/01/14 00:49:56;;;;;;;12.27;9.48;;;18.40;96.20;;;;;;4232638;27;20230;-80
2022/01/14 00:51:58;;;;;;;10.82;9.27;;;18.40;96.20;;;;;;4231181;27;20662;-79
2022/01/14 00:54:00;;;;;;;10.38;9.15;;;18.40;96.20;;;;;;4229572;28;20209;-79
2022/01/14 00:56:18;;;;;;;11.02;9.50;;;18.40;96.10;;;;;;4240337;27;20217;-79
2022/01/14 01:00:40;;;;;;;12.18;9.18;;;18.40;96.10;;;;;;4225946;28;20209;-80
2022/01/14 01:02:44;;;;;;;10.70;9.23;;;18.40;96.10;;;;;;4229561;28;20206;-80
2022/01/14 01:04:49;;;;;;;11.90;8.98;;;18.40;96.10;;;;;;4233101;27;20254;-80
2022/01/14 01:06:51;;;;;;;11.98;10.27;;;18.40;96.50;;;;;;4233238;27;20221;-80
2022/01/14 01:08:55;;;;;;;11.80;8.88;;;18.40;96.10;;;;;;4233562;27;20263;-79
2022/01/14 01:10:58;;;;;;;10.35;9.20;;;18.40;96.10;;;;;;4228358;28;20236;-80
2022/01/14 01:13:07;;;;;;;13.63;9.75;;;18.30;96.50;;;;;;4244632;27;20214;-79
2022/01/14 01:15:14;;;;;;;11.52;10.23;;;18.30;96.10;;;;;;4231147;27;20206;-80
2022/01/14 01:17:17;;;;;;;10.20;9.13;;;18.30;96.10;;;;;;4239072;27;20213;-79
2022/01/14 01:19:21;;;;;;;10.93;9.05;;;18.30;96.10;;;;;;4230800;27;20246;-80
2022/01/14 01:21:23;;;;;;;9.88;8.60;;;18.30;96.10;;;;;;4231067;27;20226;-79
2022/01/14 01:23:26;;;;;;;10.20;8.50;;;18.30;96.10;;;;;;4242765;27;20906;-79
2022/01/14 01:25:36;;;;;;;11.77;9.20;;;18.30;96.10;;;;;;4228455;28;20209;-80
2022/01/14 01:27:41;;;;;;;10.60;9.38;;;18.30;96.10;;;;;;4228944;27;20213;-79
2022/01/14 01:30:11;;;;;;;10.73;9.38;;;18.30;96.20;;;;;;4227555;28;21133;-80
2022/01/14 01:32:14;;;;;;;10.10;8.75;;;18.30;96.50;;;;;;4244050;27;20237;-79
2022/01/14 01:34:18;;;;;;;11.10;8.82;;;18.30;96.10;;;;;;4229116;27;20252;-80
2022/01/14 01:36:22;;;;;;;10.65;9.02;;;18.30;96.20;;;;;;4230852;27;20613;-79
2022/01/14 01:38:24;;;;;;;11.90;9.30;;;18.20;96.10;;;;;;4242540;27;20263;-79
2022/01/14 01:40:27;;;;;;;13.13;9.30;;;18.30;96.10;;;;;;4231379;27;20715;-79
2022/01/14 01:42:31;;;;;;;10.30;9.13;;;18.30;96.10;;;;;;4245509;27;20201;-79
2022/01/14 01:44:34;;;;;;;12.05;9.25;;;18.30;96.10;;;;;;4245420;27;20213;-79
2022/01/14 01:46:40;;;;;;;10.65;9.43;;;18.20;96.00;;;;;;4229700;27;20619;-80
2022/01/14 01:48:42;;;;;;;10.10;9.00;;;18.20;96.10;;;;;;4227401;28;20214;-79
2022/01/14 01:50:45;;;;;;;12.48;10.02;;;18.20;96.10;;;;;;4241677;27;20274;-79
2022/01/14 01:52:49;;;;;;;11.43;9.52;;;18.20;96.10;;;;;;4230631;28;20596;-79
2022/01/14 01:54:52;;;;;;;11.70;9.60;;;18.20;96.10;;;;;;4229544;28;20282;-80
2022/01/14 01:56:54;;;;;;;11.52;8.60;;;18.20;96.00;;;;;;4228912;28;20255;-79
2022/01/14 01:58:57;;;;;;;10.57;9.45;;;18.20;96.10;;;;;;4229165;28;20210;-80
2022/01/14 02:00:59;;;;;;;9.68;8.55;;;18.20;96.10;;;;;;4227744;28;20602;-79
2022/01/14 02:03:03;;;;;;;11.63;9.07;;;18.20;96.10;;;;;;4233361;28;20238;-79
2022/01/14 02:05:07;;;;;;;10.55;8.68;;;18.20;96.10;;;;;;4226556;28;20739;-79
2022/01/14 02:07:10;;;;;;;11.98;9.02;;;18.20;96.10;;;;;;4232721;28;20217;-80
2022/01/14 02:09:14;;;;;;;10.93;9.38;;;18.20;96.10;;;;;;4239996;28;20229;-79
2022/01/14 02:11:16;;;;;;;10.63;8.82;;;18.20;96.10;;;;;;4244296;28;20257;-79
2022/01/14 02:13:19;;;;;;;12.30;10.25;;;18.20;96.10;;;;;;4239590;28;20240;-79
2022/01/14 02:15:44;;;;;;;9.85;8.85;;;18.20;96.00;;;;;;4228702;28;20629;-78
2022/01/14 02:18:13;;;;;;;12.38;8.50;;;18.10;96.00;;;;;;4228891;28;20624;-79
2022/01/14 02:22:36;;;;;;;11.45;8.80;;;18.10;96.00;;;;;;4228578;28;20206;-79
2022/01/14 02:24:58;;;;;;;10.30;8.38;;;18.10;96.00;;;;;;4223915;28;21085;-79
2022/01/14 02:27:01;;;;;;;11.48;8.68;;;18.10;96.00;;;;;;4228326;28;20210;-79
2022/01/14 02:29:04;;;;;;;9.73;8.75;;;18.10;96.00;;;;;;4236508;28;20202;-79
2022/01/14 02:31:06;;;;;;;12.15;9.35;;;18.10;96.40;;;;;;4228085;28;20222;-80
2022/01/14 02:33:10;;;;;;;11.57;9.52;;;18.00;96.00;;;;;;4228479;28;20274;-79
2022/01/14 02:35:13;;;;;;;9.32;8.27;;;18.00;96.00;;;;;;4228637;28;20270;-79
2022/01/14 02:37:19;;;;;;;11.27;8.90;;;18.00;96.00;;;;;;4226678;28;20269;-79
2022/01/14 02:39:22;;;;;;;11.27;9.48;;;18.10;96.10;;;;;;4231461;28;20206;-79
2022/01/14 02:41:25;;;;;;;11.25;8.73;;;18.10;96.10;;;;;;4231630;28;20275;-79
2022/01/14 02:43:27;;;;;;;10.18;9.02;;;18.00;96.00;;;;;;4228162;28;20278;-79
2022/01/14 02:45:32;;;;;;;12.52;9.35;;;18.00;96.00;;;;;;4228702;28;20255;-79
2022/01/14 02:47:35;;;;;;;13.05;9.55;;;18.00;96.10;;;;;;4236867;28;20221;-79
2022/01/14 02:49:39;;;;;;;10.65;8.65;;;18.00;96.00;;;;;;4234641;28;20245;-79
2022/01/14 02:51:43;;;;;;;10.82;8.95;;;18.00;96.10;;;;;;4228188;28;20739;-79
2022/01/14 02:53:57;;;;;;;10.90;9.23;;;18.00;96.00;;;;;;4228567;28;20690;-79
2022/01/14 02:56:02;;;;;;;11.43;9.70;;;18.00;96.10;;;;;;4228528;28;20210;-80
2022/01/14 02:58:04;;;;;;;11.65;9.00;;;18.00;95.90;;;;;;4228615;28;20214;-79
2022/01/14 03:00:08;;;;;;;11.93;9.32;;;18.00;96.00;;;;;;4234094;28;20209;-78
2022/01/14 03:02:10;;;;;;;13.38;9.75;;;18.00;96.10;;;;;;4225623;28;20217;-79
2022/01/14 03:04:16;;;;;;;11.85;8.95;;;18.00;96.10;;;;;;4230465;27;20306;-79
2022/01/14 03:06:18;;;;;;;12.57;9.60;;;18.00;96.10;;;;;;4233397;27;20210;-79
2022/01/14 03:08:22;;;;;;;12.98;9.57;;;17.90;96.00;;;;;;4248048;27;20205;-79
2022/01/14 03:10:25;;;;;;;11.02;9.45;;;17.90;96.10;;;;;;4247997;27;20233;-79
2022/01/14 03:12:27;;;;;;;11.90;9.38;;;17.90;96.00;;;;;;4237506;27;20255;-79
2022/01/14 03:14:30;;;;;;;12.75;9.38;;;17.90;96.00;;;;;;4232821;27;20263;-79
2022/01/14 03:16:38;;;;;;;10.63;9.05;;;17.90;96.10;;;;;;4238501;27;20283;-80
2022/01/14 03:18:44;;;;;;;11.98;9.45;;;17.90;96.10;;;;;;4225344;27;20620;-79
2022/01/14 03:20:50;;;;;;;11.77;9.52;;;17.90;96.00;;;;;;4229598;28;20201;-79
2022/01/14 03:23:03;;;;;;;10.65;9.30;;;17.90;96.00;;;;;;4230923;28;20666;-79
2022/01/14 03:27:25;;;;;;;10.90;8.85;;;17.90;96.00;;;;;;4217892;28;20666;-79
2022/01/14 03:29:27;;;;;;;10.57;8.82;;;17.90;96.00;;;;;;4245399;27;20209;-79
2022/01/14 03:31:30;;;;;;;10.98;8.57;;;17.90;96.10;;;;;;4234592;27;20286;-79
2022/01/14 03:33:32;;;;;;;12.40;10.07;;;17.90;96.00;;;;;;4227774;27;20214;-78
2022/01/14 03:35:34;;;;;;;11.32;9.48;;;17.90;96.00;;;;;;4244653;27;20273;-80
2022/01/14 03:37:37;;;;;;;12.32;9.10;;;17.90;96.10;;;;;;4228523;27;20917;-79
2022/01/14 03:39:39;;;;;;;11.30;9.20;;;17.80;96.00;;;;;;4228314;28;20213;-79
2022/01/14 03:41:43;;;;;;;10.55;9.07;;;17.90;96.10;;;;;;4240290;27;20213;-79
2022/01/14 03:43:45;;;;;;;9.80;8.75;;;17.80;96.00;;;;;;4242803;27;20303;-79
2022/01/14 03:45:49;;;;;;;11.35;9.23;;;17.90;96.10;;;;;;4232820;27;20267;-79
2022/01/14 03:47:51;;;;;;;11.55;9.50;;;17.80;96.10;;;;;;4232415;27;20210;-80
2022/01/14 03:49:54;;;;;;;12.32;9.57;;;17.80;96.00;;;;;;4229112;28;20213;-80
2022/01/14 03:51:56;;;;;;;10.93;8.85;;;17.80;96.10;;;;;;4228175;28;20214;-79
2022/01/14 03:53:59;;;;;;;10.40;8.55;;;17.80;96.10;;;;;;4230176;28;20217;-79
2022/01/14 03:56:01;;;;;;;11.15;9.30;;;17.80;96.20;;;;;;4230344;27;20214;-79
2022/01/14 03:58:05;;;;;;;11.63;8.90;;;17.80;96.10;;;;;;4229006;28;20618;-80
2022/01/14 04:00:08;;;;;;;12.38;9.60;;;17.80;96.10;;;;;;4230638;28;20217;-80
2022/01/14 04:02:11;;;;;;;11.18;9.00;;;17.70;96.10;;;;;;4230724;28;20213;-79
2022/01/14 04:04:13;;;;;;;11.50;8.45;;;17.80;96.10;;;;;;4245469;27;20480;-80
2022/01/14 04:06:17;;;;;;;11.32;9.35;;;17.80;96.10;;;;;;4231454;27;20210;-79
2022/01/14 04:08:19;;;;;;;10.70;8.88;;;17.80;96.10;;;;;;4228608;27;20624;-80
2022/01/14 04:10:22;;;;;;;11.75;8.57;;;17.80;96.10;;;;;;4230556;28;20229;-79
2022/01/14 04:12:43;;;;;;;12.35;9.25;;;17.80;96.10;;;;;;4236443;27;20217;-79
2022/01/14 04:17:08;;;;;;;12.82;8.63;;;17.70;96.00;;;;;;4230021;28;20627;-79
2022/01/14 04:19:10;;;;;;;11.15;8.50;;;17.70;96.00;;;;;;4244264;27;20269;-79
2022/01/14 04:21:13;;;;;;;12.25;9.02;;;17.70;96.10;;;;;;4244752;27;20209;-79
2022/01/14 04:23:17;;;;;;;12.82;8.98;;;17.70;96.10;;;;;;4231103;27;20226;-79
2022/01/14 04:25:20;;;;;;;10.27;8.93;;;17.70;96.10;;;;;;4235711;27;20695;-80
2022/01/14 04:27:22;;;;;;;11.65;8.07;;;17.70;96.10;;;;;;4243997;27;20213;-80
2022/01/14 04:29:24;;;;;;;11.63;9.13;;;17.70;96.10;;;;;;4243816;27;20234;-80
2022/01/14 04:31:28;;;;;;;12.82;9.13;;;17.70;96.10;;;;;;4232659;27;20229;-79
2022/01/14 04:33:32;;;;;;;10.55;8.57;;;17.70;96.40;;;;;;4227040;28;20214;-80
2022/01/14 04:35:36;;;;;;;11.20;8.48;;;17.70;96.20;;;;;;4229998;28;20218;-80
2022/01/14 04:37:39;;;;;;;12.05;8.77;;;17.70;96.10;;;;;;4229777;28;20274;-80
2022/01/14 04:39:41;;;;;;;11.68;8.57;;;17.70;96.10;;;;;;4232043;27;20300;-80
2022/01/14 04:41:44;;;;;;;10.63;9.10;;;17.70;96.10;;;;;;4241157;27;20225;-80
2022/01/14 04:43:46;;;;;;;9.68;8.50;;;17.70;96.10;;;;;;4243477;27;20253;-80
2022/01/14 04:46:12;;;;;;;12.88;8.77;;;17.60;96.50;;;;;;4245098;27;20221;-79
2022/01/14 04:48:16;;;;;;;11.02;8.55;;;17.60;96.10;;;;;;4240967;27;20879;-80
2022/01/14 04:50:21;;;;;;;11.77;8.70;;;17.60;96.10;;;;;;4227794;27;20656;-79
2022/01/14 04:52:24;;;;;;;10.38;8.75;;;17.60;96.10;;;;;;4244454;27;20208;-79
2022/01/14 04:54:26;;;;;;;12.35;8.82;;;17.60;96.10;;;;;;4239430;27;20217;-79
2022/01/14 04:56:28;;;;;;;13.15;8.82;;;17.60;96.10;;;;;;4243939;27;20694;-80
2022/01/14 04:58:31;;;;;;;12.57;9.23;;;17.60;96.10;;;;;;4226914;28;20271;-80
2022/01/14 05:00:33;;;;;;;10.10;8.48;;;17.60;96.10;;;;;;4243175;27;20274;-80
2022/01/14 05:02:36;;;;;;;11.50;8.82;;;17.50;96.10;;;;;;4229800;27;20673;-80
2022/01/14 05:04:45;;;;;;;10.15;8.88;;;17.60;96.10;;;;;;4244013;27;20289;-80
2022/01/14 05:06:54;;;;;;;11.32;9.02;;;17.60;96.10;;;;;;4237634;27;20214;-80
2022/01/14 05:08:57;;;;;;;11.77;8.93;;;17.60;96.20;;;;;;4228421;28;20209;-80
2022/01/14 05:11:15;;;;;;;11.93;8.95;;;17.60;96.10;;;;;;4229337;28;20623;-79
2022/01/14 05:13:17;;;;;;;10.10;8.52;;;17.50;96.10;;;;;;4244310;27;20261;-80
2022/01/14 05:15:20;;;;;;;10.57;8.32;;;17.50;96.10;;;;;;4237493;27;20268;-80
2022/01/14 05:17:23;;;;;;;11.90;8.48;;;17.50;96.20;;;;;;4228232;28;20218;-79
2022/01/14 05:19:25;;;;;;;11.13;8.93;;;17.50;96.20;;;;;;4229145;28;20214;-80
2022/01/14 05:21:29;;;;;;;9.80;8.40;;;17.50;96.10;;;;;;4231134;27;20275;-79
2022/01/14 05:23:31;;;;;;;10.93;9.02;;;17.50;96.10;;;;;;4237399;27;20213;-80
2022/01/14 05:25:33;;;;;;;11.90;8.70;;;17.50;96.10;;;;;;4230147;27;20259;-79
2022/01/14 05:27:37;;;;;;;9.98;8.40;;;17.50;96.10;;;;;;4228662;28;20262;-80
2022/01/14 05:29:39;;;;;;;10.20;8.75;;;17.50;96.10;;;;;;4228810;28;20679;-80
2022/01/14 05:31:46;;;;;;;10.15;8.07;;;17.50;96.10;;;;;;4229108;28;20233;-80
2022/01/14 05:33:50;;;;;;;9.68;8.38;;;17.50;96.10;;;;;;4227125;28;20842;-79
2022/01/14 05:35:53;;;;;;;11.77;8.77;;;17.50;96.10;;;;;;4232425;27;20242;-79
2022/01/14 05:37:57;;;;;;;12.13;8.95;;;17.50;96.10;;;;;;4240376;27;20218;-79
2022/01/14 05:39:59;;;;;;;12.35;8.95;;;17.50;96.10;;;;;;4228980;28;20734;-80
2022/01/14 05:42:02;;;;;;;11.40;8.82;;;17.50;96.10;;;;;;4229140;28;20202;-80
2022/01/14 05:44:06;;;;;;;12.57;9.30;;;17.40;96.10;;;;;;4227862;28;20266;-80
2022/01/14 05:46:08;;;;;;;13.35;8.73;;;17.50;96.20;;;;;;4228338;28;20209;-79
2022/01/14 05:48:10;;;;;;;9.40;8.35;;;17.50;96.10;;;;;;4228488;28;20254;-80
2022/01/14 05:50:15;;;;;;;11.23;8.45;;;17.40;96.10;;;;;;4226463;28;20270;-80
2022/01/14 05:52:17;;;;;;;11.98;8.85;;;17.40;96.10;;;;;;4243350;28;20289;-79
2022/01/14 05:54:22;;;;;;;11.73;8.73;;;17.40;96.30;;;;;;4245809;28;20265;-80
2022/01/14 05:56:24;;;;;;;10.82;8.88;;;17.20;96.60;;;;;;4228535;28;20278;-80
2022/01/14 05:58:27;;;;;;;11.13;8.60;;;17.20;97.10;;;;;;4228253;28;20222;-79
2022/01/14 06:00:29;;;;;;;11.25;9.30;;;17.10;96.70;;;;;;4228319;28;20234;-79
2022/01/14 06:02:31;;;;;;;10.85;8.02;;;17.30;96.50;;;;;;4225699;28;20202;-80
2022/01/14 06:04:34;;;;;;;10.80;8.00;;;17.40;96.50;;;;;;4237304;28;20225;-79
2022/01/14 06:06:36;;;;;;;11.27;8.18;;;17.40;96.30;;;;;;4231062;28;20222;-79
2022/01/14 06:08:39;;;;;;;13.05;8.70;;;17.50;96.30;;;;;;4227794;28;20213;-79
2022/01/14 06:10:42;;;;;;;12.05;9.25;;;17.60;96.40;;;;;;4232906;28;20213;-80
2022/01/14 06:12:45;;;;;;;12.38;9.02;;;17.60;96.30;;;;;;4238278;28;20765;-80
2022/01/14 06:14:47;;;;;;;10.52;9.05;;;17.70;96.50;;;;;;4244725;28;20212;-79
2022/01/14 06:16:49;;;;;;;11.88;8.52;;;17.60;96.50;;;;;;4243752;28;20258;-79
2022/01/14 06:18:52;;;;;;;12.90;9.05;;;17.60;96.60;;;;;;4241027;28;20221;-79
2022/01/14 06:20:54;;;;;;;13.18;8.98;;;17.70;97.00;;;;;;4228908;28;20218;-80
2022/01/14 06:22:56;;;;;;;11.35;8.60;;;17.70;96.60;;;;;;4245298;28;20254;-79
2022/01/14 06:25:00;;;;;;;13.05;8.70;;;17.70;96.80;;;;;;4233339;28;20205;-79
2022/01/14 06:27:04;;;;;;;10.85;8.48;;;17.70;96.90;;;;;;4228363;28;20206;-79
2022/01/14 06:29:06;;;;;;;12.82;8.48;;;17.70;97.00;;;;;;4227943;28;20206;-80
2022/01/14 06:31:09;;;;;;;13.90;8.75;;;17.70;96.90;;;;;;4233989;28;20480;-79
2022/01/14 06:33:11;;;;;;;9.88;8.43;;;17.80;97.00;;;;;;4238576;28;20237;-79
2022/01/14 06:35:15;;;;;;;11.45;8.43;;;17.80;97.00;;;;;;4228373;28;20210;-79
2022/01/14 06:37:18;;;;;;;10.60;7.47;;;17.80;97.00;;;;;;4229217;28;20225;-79
2022/01/14 06:39:20;;;;;;;10.73;8.40;;;17.80;97.30;;;;;;4245971;27;20258;-80
2022/01/14 06:41:23;;;;;;;10.70;7.45;;;17.80;97.30;;;;;;4233384;27;20213;-80
2022/01/14 06:43:26;;;;;;;11.32;7.97;;;17.80;97.40;;;;;;4231977;28;20259;-79
2022/01/14 06:45:29;;;;;;;10.40;8.50;;;17.80;97.30;;;;;;4241515;27;20653;-79
2022/01/14 06:47:31;;;;;;;9.90;7.40;;;17.80;97.40;;;;;;4233858;27;20969;-79
2022/01/14 06:49:33;;;;;;;10.77;7.38;;;17.80;97.40;;;;;;4243373;27;20266;-79
2022/01/14 06:51:36;;;;;;;13.60;8.70;;;17.80;97.70;;;;;;4243620;27;20217;-78
2022/01/14 06:53:38;;;;;;;11.02;7.75;;;17.90;97.10;;;;;;4235167;27;20620;-79
2022/01/14 06:55:40;;;;;;;9.65;7.10;;;17.90;97.40;;;;;;4243444;27;20209;-79
2022/01/14 06:57:43;;;;;;;10.75;7.35;;;17.90;97.70;;;;;;4238061;27;20693;-79
2022/01/14 06:59:47;;;;;;;10.90;7.07;;;17.80;97.70;;;;;;4229765;27;20205;-79
2022/01/14 07:01:49;;;;;;;11.70;8.27;;;17.90;97.70;;;;;;4227743;28;20209;-79
2022/01/14 07:03:51;;;;;;;12.48;7.88;;;17.90;97.80;;;;;;4231392;28;20266;-79
2022/01/14 07:05:54;;;;;;;9.60;7.60;;;17.90;97.80;;;;;;4246793;27;20213;-79
2022/01/14 07:07:56;;;;;;;10.05;7.57;;;17.90;97.80;;;;;;4230601;28;20209;-79
2022/01/14 07:09:58;;;;;;;10.02;7.03;;;17.90;97.80;;;;;;4240038;27;20209;-79
2022/01/14 07:12:02;;;;;;;12.38;8.40;;;17.90;97.90;;;;;;4240337;27;20233;-79
2022/01/14 07:14:05;;;;;;;11.60;7.93;;;17.90;97.90;;;;;;4230518;28;20217;-79
2022/01/14 07:16:09;;;;;;;11.20;7.57;;;17.90;97.90;;;;;;4243575;27;20216;-78
2022/01/14 07:18:11;;;;;;;10.63;7.70;;;18.00;98.00;;;;;;4231559;27;20266;-79
2022/01/14 07:20:17;;;;;;;11.85;7.28;;;17.90;98.10;;;;;;4243379;27;20650;-79
2022/01/14 07:22:20;;;;;;;8.70;6.82;;;17.90;98.00;;;;;;4246876;27;20209;-78
2022/01/14 07:24:23;;;;;;;10.73;7.38;;;18.00;98.50;;;;;;4229954;27;20262;-80
2022/01/14 07:26:25;;;;;;;10.73;7.68;;;18.00;98.50;;;;;;4231840;27;20259;-79
2022/01/14 07:28:27;;;;;;;9.68;6.70;;;18.00;98.00;;;;;;4230523;28;20243;-79
2022/01/14 07:30:30;;;;;;;10.70;7.43;;;18.00;98.10;;;;;;4244992;27;20254;-79
2022/01/14 07:32:33;;;;;;;10.50;7.18;;;18.00;98.10;;;;;;4228617;28;20354;-79
2022/01/14 07:34:36;;;;;;;15.15;8.07;;;18.00;98.20;;;;;;4230182;28;20226;-80
2022/01/14 07:36:38;;;;;;;11.18;8.13;;;18.00;98.10;;;;;;4242426;27;20217;-80
2022/01/14 07:38:40;;;;;;;8.75;7.20;;;18.00;98.20;;;;;;4233631;27;20213;-79
2022/01/14 07:40:43;;;;;;;10.95;7.38;;;18.00;98.20;;;;;;4242265;27;20213;-79
2022/01/14 07:42:45;;;;;;;10.40;7.35;;;18.00;98.20;;;;;;4232726;27;20214;-79
2022/01/14 07:44:47;;;;;;;10.20;7.70;;;18.00;98.30;;;;;;4230152;27;20218;-79
2022/01/14 07:46:50;;;;;;;11.55;7.35;;;18.10;98.30;;;;;;4243457;27;20225;-79
2022/01/14 07:48:54;;;;;;;12.98;7.90;;;18.00;98.30;;;;;;4228281;27;20218;-78
2022/01/14 07:50:56;;;;;;;12.18;7.32;;;18.00;97.80;;;;;;4230868;28;20267;-79
2022/01/14 07:52:58;;;;;;;10.90;7.30;;;18.00;98.20;;;;;;4231476;27;20259;-79
2022/01/14 07:55:01;;;;;;;12.75;8.15;;;18.00;98.40;;;;;;4231864;28;20209;-78
2022/01/14 07:57:04;;;;;;;10.88;8.05;;;17.90;97.40;;;;;;4230600;28;20270;-78
2022/01/14 07:59:07;;;;;;;13.52;8.82;;;18.10;97.80;;;;;;4219819;27;20217;-78
2022/01/14 08:01:10;;;;;;;15.23;8.20;;;18.00;97.60;;;;;;4225327;27;20275;-79
2022/01/14 08:03:12;;;;;;;16.08;8.07;;;18.20;98.00;;;;;;4228192;28;20221;-78
2022/01/14 08:05:16;;;;;;;14.38;7.97;;;18.30;98.10;;;;;;4226430;28;20628;-78
2022/01/14 08:07:22;;;;;;;11.75;8.20;;;18.40;98.10;;;;;;4229647;28;20259;-77
2022/01/14 08:09:25;;;;;;;13.70;8.10;;;18.50;98.10;;;;;;4228432;28;20247;-77
2022/01/14 08:11:27;;;;;;;14.70;8.57;;;18.60;97.50;;;;;;4231549;27;20210;-77
2022/01/14 08:13:30;;;;;;;12.75;8.13;;;18.70;97.30;;;;;;4238454;27;20237;-77
2022/01/14 08:15:32;;;;;;;10.48;6.88;;;18.80;97.00;;;;;;4233529;27;20267;-77
2022/01/14 08:17:35;;;;;;;13.02;8.07;;;18.90;96.90;;;;;;4220926;28;20263;-77
2022/01/14 08:19:37;;;;;;;14.75;8.70;;;18.90;96.50;;;;;;4235446;27;20205;-75
2022/01/14 08:21:41;;;;;;;15.30;9.35;;;18.80;96.20;;;;;;4227691;27;20213;-76
2022/01/14 08:23:43;;;;;;;11.20;7.88;;;18.80;96.40;;;;;;4228113;27;20255;-76
2022/01/14 08:25:46;;;;;;;10.48;8.52;;;18.90;96.70;;;;;;4241388;27;20209;-76
2022/01/14 08:27:48;;;;;;;16.70;9.15;;;19.00;96.70;;;;;;4228127;28;20544;-76
2022/01/14 08:29:51;;;;;;;14.25;8.70;;;19.10;97.10;;;;;;4228154;28;20206;-76
2022/01/14 08:31:53;;;;;;;12.63;8.50;;;19.20;96.90;;;;;;4228149;27;20230;-76
2022/01/14 08:33:56;;;;;;;15.43;8.77;;;19.30;96.60;;;;;;4228356;27;20230;-76
2022/01/14 08:35:58;;;;;;;16.90;9.43;;;19.30;96.60;;;;;;4228021;28;20266;-77
2022/01/14 08:38:02;;;;;;;14.70;8.23;;;19.30;96.30;;;;;;4227926;28;20213;-78
2022/01/14 08:40:06;;;;;;;13.73;9.38;;;19.30;96.20;;;;;;4224310;28;20263;-76
2022/01/14 08:42:10;;;;;;;13.35;9.75;;;19.30;96.60;;;;;;4234840;27;20262;-76
2022/01/14 08:44:14;;;;;;;15.48;10.02;;;19.20;96.20;;;;;;4230672;27;20265;-76
2022/01/14 08:46:16;;;;;;;20.52;11.35;;;19.00;96.00;;;;;;4233902;27;20217;-75
2022/01/14 08:48:19;;;;;;;17.17;10.50;;;18.90;96.20;;;;;;4234944;27;20704;-76
2022/01/14 08:50:23;;;;;;;15.48;10.18;;;18.90;96.20;;;;;;4229200;27;20218;-76
2022/01/14 08:52:25;;;;;;;14.55;9.40;;;19.10;96.50;;;;;;4233403;27;20265;-77
2022/01/14 08:54:29;;;;;;;16.92;9.55;;;19.30;96.60;;;;;;4224633;28;20241;-74
2022/01/14 08:56:32;;;;;;;14.93;9.90;;;19.30;96.20;;;;;;4218104;27;20206;-77
2022/01/14 08:58:34;;;;;;;15.02;9.63;;;19.40;96.30;;;;;;4228464;27;20218;-77
2022/01/14 09:00:37;;;;;;;13.93;8.48;;;19.30;96.80;;;;;;4224359;28;20255;-75
2022/01/14 09:02:39;;;;;;;9.73;8.10;;;19.40;96.80;;;;;;4226028;28;20205;-76
2022/01/14 09:04:41;;;;;;;13.20;9.25;;;19.50;96.50;;;;;;4227154;27;20602;-77
2022/01/14 09:06:44;;;;;;;13.32;8.93;;;19.60;96.40;;;;;;4227453;27;20218;-75
2022/01/14 09:08:46;;;;;;;12.48;8.57;;;19.60;96.40;;;;;;4225578;28;20555;-75
2022/01/14 09:10:50;;;;;;;12.63;8.98;;;19.70;96.40;;;;;;4224754;27;20562;-75
2022/01/14 09:12:52;;;;;;;13.65;8.82;;;19.70;96.40;;;;;;4224700;27;20210;-78
2022/01/14 09:14:55;;;;;;;14.85;8.52;;;19.70;96.30;;;;;;4224848;27;20270;-77
2022/01/14 09:16:59;;;;;;;15.07;9.00;;;19.80;96.40;;;;;;4226697;27;20267;-75
2022/01/14 09:19:01;;;;;;;14.63;8.63;;;19.80;96.40;;;;;;4229502;27;20282;-79
2022/01/14 09:21:05;;;;;;;16.63;9.73;;;19.80;96.60;;;;;;4225499;28;20286;-78
2022/01/14 09:23:13;;;;;;;12.50;8.32;;;19.80;96.60;;;;;;4236819;27;20220;-76
2022/01/14 09:25:16;;;;;;;12.57;8.48;;;19.80;96.80;;;;;;4226191;28;20271;-76
2022/01/14 09:27:21;;;;;;;14.20;9.00;;;19.80;96.70;;;;;;4228867;27;20666;-77
2022/01/14 09:29:23;;;;;;;12.63;8.57;;;20.00;96.30;;;;;;4228029;28;20209;-79
2022/01/14 09:31:25;;;;;;;12.88;9.13;;;20.00;96.10;;;;;;4225705;28;20282;-77
2022/01/14 09:33:28;;;;;;;14.48;9.27;;;20.00;96.40;;;;;;4216763;28;20234;-76
2022/01/14 09:35:30;;;;;;;18.45;8.85;;;20.00;96.70;;;;;;4219883;28;20206;-75
2022/01/14 09:37:33;;;;;;;13.48;8.93;;;20.10;96.90;;;;;;4219690;28;20214;-76
2022/01/14 09:39:36;;;;;;;15.30;9.05;;;20.10;96.50;;;;;;4217405;27;20236;-76
2022/01/14 09:41:39;;;;;;;16.83;10.00;;;20.00;96.90;;;;;;4225276;27;20206;-77
2022/01/14 09:43:42;;;;;;;12.50;8.93;;;20.10;96.20;;;;;;4227505;28;20218;-76
2022/01/14 09:45:45;;;;;;;12.35;8.57;;;20.10;96.60;;;;;;4220844;28;20827;-76
2022/01/14 09:47:49;;;;;;;16.13;9.25;;;20.10;96.40;;;;;;4218082;28;20247;-76
2022/01/14 09:49:51;;;;;;;15.85;9.50;;;20.20;96.70;;;;;;4223953;28;20210;-75
2022/01/14 09:51:54;;;;;;;15.15;9.43;;;20.00;96.30;;;;;;4216505;28;20211;-76
2022/01/14 09:53:57;;;;;;;15.60;8.93;;;20.20;96.20;;;;;;4220457;28;20346;-77
2022/01/14 09:56:01;;;;;;;17.67;8.65;;;20.20;96.60;;;;;;4219246;28;20217;-77
2022/01/14 09:58:03;;;;;;;11.60;7.63;;;20.30;96.70;;;;;;4222246;28;20213;-77
2022/01/14 10:00:08;;;;;;;12.35;8.80;;;20.30;96.70;;;;;;4223836;28;20209;-77
2022/01/14 10:02:29;;;;;;;12.88;8.50;;;20.40;96.80;;;;;;4221158;28;20215;-78
2022/01/14 10:04:32;;;;;;;13.95;8.93;;;20.30;97.50;;;;;;4221286;28;20639;-76
2022/01/14 10:06:36;;;;;;;15.20;9.25;;;20.40;96.80;;;;;;4227907;28;20210;-77
2022/01/14 10:08:38;;;;;;;13.57;8.68;;;20.40;96.50;;;;;;4221978;28;20221;-77
2022/01/14 10:10:46;;;;;;;16.15;9.32;;;20.40;96.60;;;;;;4225954;28;20213;-79
2022/01/14 10:12:48;;;;;;;17.70;9.70;;;20.40;97.00;;;;;;4228359;28;20217;-79
2022/01/14 10:14:55;;;;;;;13.50;8.82;;;20.40;96.40;;;;;;4231856;28;20282;-80
2022/01/14 10:17:00;;;;;;;12.52;8.07;;;20.50;96.70;;;;;;4229640;28;20255;-77
2022/01/14 10:19:04;;;;;;;15.18;8.95;;;20.50;97.00;;;;;;4227923;28;20218;-74
2022/01/14 10:21:09;;;;;;;16.08;8.95;;;20.60;97.10;;;;;;4229639;27;20258;-75
2022/01/14 10:23:13;;;;;;;11.02;7.88;;;20.70;96.90;;;;;;4230381;28;20226;-75
2022/01/14 10:25:17;;;;;;;13.55;8.35;;;20.60;97.20;;;;;;4233371;27;20214;-76
2022/01/14 10:27:31;;;;;;;10.63;8.00;;;20.60;96.90;;;;;;4237450;27;20212;-76
2022/01/14 10:29:37;;;;;;;14.63;8.60;;;20.60;97.20;;;;;;4236619;27;20665;-77
2022/01/14 10:31:42;;;;;;;16.85;9.30;;;20.60;96.80;;;;;;4225393;27;20230;-79
2022/01/14 10:33:45;;;;;;;10.32;7.47;;;20.60;97.30;;;;;;4229521;27;20282;-79
2022/01/14 10:35:48;;;;;;;13.27;8.40;;;20.60;98.10;;;;;;4228160;28;20698;-77
2022/01/14 10:37:50;;;;;;;11.63;7.10;;;20.70;97.30;;;;;;4226975;27;20285;-80
2022/01/14 10:39:53;;;;;;;13.23;8.45;;;20.70;97.30;;;;;;4226318;27;20209;-79
2022/01/14 10:41:56;;;;;;;15.32;7.78;;;20.80;97.30;;;;;;4224185;28;20267;-79
2022/01/14 10:44:00;;;;;;;11.05;7.70;;;20.80;97.40;;;;;;4232082;28;20214;-78
2022/01/14 10:46:11;;;;;;;10.55;9.02;;;20.70;97.40;;;;;;4226170;27;20259;-77
2022/01/14 10:48:16;;;;;;;10.77;8.02;;;20.70;97.20;;;;;;4226551;28;20209;-77
2022/01/14 10:50:37;;;;;;;11.70;8.20;;;20.60;97.20;;;;;;4229948;27;20654;-77
2022/01/14 10:52:39;;;;;;;17.23;8.45;;;20.80;97.50;;;;;;4226146;28;20259;-79
2022/01/14 10:54:43;;;;;;;9.75;7.28;;;20.70;97.20;;;;;;4237462;27;20278;-79
2022/01/14 10:56:46;;;;;;;15.23;7.43;;;20.90;97.70;;;;;;4236098;27;20601;-78